sensor_id;sensor_type;location;lat;lon;timestamp;pressure;altitude;pressure_sealevel;temperature;humidity
12536;BME280;6334;48.696;2.114;2023-08-17T00:02:15;100075.86;;;22.18;65.49
12536;BME280;6334;48.696;2.114;2023-08-17T00:04:46;100076.61;;;22.26;65.82
12536;BME280;6334;48.696;2.114;2023-08-17T00:07:16;100082.14;;;22.25;65.16
12536;BME280;6334;48.696;2.114;2023-08-17T00:09:47;100085.15;;;22.08;65.90
12536;BME280;6334;48.696;2.114;2023-08-17T00:12:17;100085.23;;;22.19;65.58
12536;BME280;6334;48.696;2.114;2023-08-17T00:14:48;100083.98;;;22.07;66.74
12536;BME280;6334;48.696;2.114;2023-08-17T00:17:19;100085.52;;;22.15;66.19
12536;BME280;6334;48.696;2.114;2023-08-17T00:19:49;100081.98;;;22.00;67.19
12536;BME280;6334;48.696;2.114;2023-08-17T00:22:19;100087.59;;;22.04;66.40
12536;BME280;6334;48.696;2.114;2023-08-17T00:24:50;100081.44;;;21.93;68.06
12536;BME280;6334;48.696;2.114;2023-08-17T00:27:20;100082.75;;;22.04;66.72
12536;BME280;6334;48.696;2.114;2023-08-17T00:29:51;100081.36;;;21.98;67.73
12536;BME280;6334;48.696;2.114;2023-08-17T00:32:21;100084.86;;;22.00;67.18
12536;BME280;6334;48.696;2.114;2023-08-17T00:34:52;100082.44;;;21.98;67.98
12536;BME280;6334;48.696;2.114;2023-08-17T00:37:22;100082.94;;;22.06;67.11
12536;BME280;6334;48.696;2.114;2023-08-17T00:39:53;100080.73;;;21.87;68.46
12536;BME280;6334;48.696;2.114;2023-08-17T00:42:23;100082.64;;;21.59;69.37
12536;BME280;6334;48.696;2.114;2023-08-17T00:44:53;100082.17;;;21.96;67.52
12536;BME280;6334;48.696;2.114;2023-08-17T00:47:24;100080.76;;;22.10;67.34
12536;BME280;6334;48.696;2.114;2023-08-17T00:49:55;100075.36;;;22.05;67.39
12536;BME280;6334;48.696;2.114;2023-08-17T00:52:25;100083.27;;;22.00;67.94
12536;BME280;6334;48.696;2.114;2023-08-17T00:54:56;100081.67;;;22.04;67.32
12536;BME280;6334;48.696;2.114;2023-08-17T00:57:26;100081.34;;;21.97;68.35
12536;BME280;6334;48.696;2.114;2023-08-17T00:59:56;100080.02;;;22.09;67.57
12536;BME280;6334;48.696;2.114;2023-08-17T01:02:27;100073.55;;;22.16;66.82
12536;BME280;6334;48.696;2.114;2023-08-17T01:04:57;100075.48;;;22.08;67.26
12536;BME280;6334;48.696;2.114;2023-08-17T01:07:28;100071.23;;;21.97;68.36
12536;BME280;6334;48.696;2.114;2023-08-17T01:09:58;100067.16;;;22.01;67.28
12536;BME280;6334;48.696;2.114;2023-08-17T01:12:29;100065.36;;;21.99;68.24
12536;BME280;6334;48.696;2.114;2023-08-17T01:18:44;100061.31;;;21.90;68.74
12536;BME280;6334;48.696;2.114;2023-08-17T01:20:29;100064.27;;;21.89;68.08
12536;BME280;6334;48.696;2.114;2023-08-17T01:23:08;100067.83;;;21.99;68.06
12536;BME280;6334;48.696;2.114;2023-08-17T01:25:38;100068.08;;;22.03;67.77
12536;BME280;6334;48.696;2.114;2023-08-17T01:28:09;100065.42;;;21.99;68.34
12536;BME280;6334;48.696;2.114;2023-08-17T01:31:05;100063.94;;;22.01;67.63
12536;BME280;6334;48.696;2.114;2023-08-17T01:33:58;100054.84;;;21.97;68.40
12536;BME280;6334;48.696;2.114;2023-08-17T01:36:05;100061.05;;;21.96;68.13
12536;BME280;6334;48.696;2.114;2023-08-17T01:38:34;100057.25;;;21.90;69.22
12536;BME280;6334;48.696;2.114;2023-08-17T01:41:04;100055.08;;;21.71;69.81
12536;BME280;6334;48.696;2.114;2023-08-17T01:43:34;100048.09;;;21.87;68.62
12536;BME280;6334;48.696;2.114;2023-08-17T01:46:05;100047.37;;;21.75;69.53
12536;BME280;6334;48.696;2.114;2023-08-17T01:48:35;100049.20;;;21.83;69.69
12536;BME280;6334;48.696;2.114;2023-08-17T01:51:06;100055.25;;;21.76;69.11
12536;BME280;6334;48.696;2.114;2023-08-17T01:53:36;100059.91;;;21.82;69.63
12536;BME280;6334;48.696;2.114;2023-08-17T01:56:07;100066.22;;;21.74;69.90
12536;BME280;6334;48.696;2.114;2023-08-17T01:58:37;100069.67;;;21.78;69.92
12536;BME280;6334;48.696;2.114;2023-08-17T02:01:07;100063.84;;;21.64;70.16
12536;BME280;6334;48.696;2.114;2023-08-17T02:03:38;100064.67;;;21.65;70.62
12536;BME280;6334;48.696;2.114;2023-08-17T02:06:08;100066.00;;;21.50;70.99
12536;BME280;6334;48.696;2.114;2023-08-17T02:08:39;100066.06;;;21.22;72.17
12536;BME280;6334;48.696;2.114;2023-08-17T02:11:09;100064.77;;;21.55;70.93
12536;BME280;6334;48.696;2.114;2023-08-17T02:13:40;100067.75;;;21.32;72.01
12536;BME280;6334;48.696;2.114;2023-08-17T02:16:10;100065.79;;;21.62;69.96
12536;BME280;6334;48.696;2.114;2023-08-17T02:18:41;100064.41;;;21.34;71.06
12536;BME280;6334;48.696;2.114;2023-08-17T02:21:11;100071.36;;;21.24;71.85
12536;BME280;6334;48.696;2.114;2023-08-17T02:23:42;100070.01;;;21.37;70.45
12536;BME280;6334;48.696;2.114;2023-08-17T02:26:12;100074.49;;;21.17;72.35
12536;BME280;6334;48.696;2.114;2023-08-17T02:28:42;100069.35;;;21.46;70.23
12536;BME280;6334;48.696;2.114;2023-08-17T02:31:13;100072.84;;;21.29;72.12
12536;BME280;6334;48.696;2.114;2023-08-17T02:33:43;100075.02;;;21.27;71.41
12536;BME280;6334;48.696;2.114;2023-08-17T02:36:14;100076.47;;;21.29;71.46
12536;BME280;6334;48.696;2.114;2023-08-17T02:38:44;100073.23;;;21.48;70.17
12536;BME280;6334;48.696;2.114;2023-08-17T02:41:15;100066.52;;;21.52;69.86
12536;BME280;6334;48.696;2.114;2023-08-17T02:43:45;100075.22;;;21.19;72.07
12536;BME280;6334;48.696;2.114;2023-08-17T02:46:16;100070.69;;;21.45;70.18
12536;BME280;6334;48.696;2.114;2023-08-17T02:48:46;100079.12;;;21.26;71.87
12536;BME280;6334;48.696;2.114;2023-08-17T02:51:17;100080.36;;;21.49;70.97
12536;BME280;6334;48.696;2.114;2023-08-17T02:53:47;100076.56;;;21.50;70.21
12536;BME280;6334;48.696;2.114;2023-08-17T02:56:18;100080.63;;;21.54;70.92
12536;BME280;6334;48.696;2.114;2023-08-17T02:58:48;100082.06;;;21.36;71.03
12536;BME280;6334;48.696;2.114;2023-08-17T03:01:20;100082.93;;;21.30;71.63
12536;BME280;6334;48.696;2.114;2023-08-17T03:03:50;100080.02;;;21.38;71.68
12536;BME280;6334;48.696;2.114;2023-08-17T03:06:21;100076.81;;;21.49;71.17
12536;BME280;6334;48.696;2.114;2023-08-17T03:08:51;100072.35;;;21.51;70.29
12536;BME280;6334;48.696;2.114;2023-08-17T03:11:22;100075.91;;;21.60;70.19
12536;BME280;6334;48.696;2.114;2023-08-17T03:13:52;100073.86;;;21.58;69.87
12536;BME280;6334;48.696;2.114;2023-08-17T03:16:22;100067.17;;;21.59;70.22
12536;BME280;6334;48.696;2.114;2023-08-17T03:18:53;100070.41;;;21.60;70.27
12536;BME280;6334;48.696;2.114;2023-08-17T03:21:23;100065.83;;;21.43;70.76
12536;BME280;6334;48.696;2.114;2023-08-17T03:23:54;100065.84;;;21.41;70.62
12536;BME280;6334;48.696;2.114;2023-08-17T03:26:24;100067.92;;;21.55;70.12
12536;BME280;6334;48.696;2.114;2023-08-17T03:28:55;100062.30;;;21.55;70.06
12536;BME280;6334;48.696;2.114;2023-08-17T03:31:25;100060.20;;;21.32;71.31
12536;BME280;6334;48.696;2.114;2023-08-17T03:33:56;100056.62;;;21.43;71.39
12536;BME280;6334;48.696;2.114;2023-08-17T03:36:26;100056.32;;;21.30;71.85
12536;BME280;6334;48.696;2.114;2023-08-17T03:38:57;100062.38;;;21.34;71.86
12536;BME280;6334;48.696;2.114;2023-08-17T03:41:27;100060.42;;;21.37;71.58
12536;BME280;6334;48.696;2.114;2023-08-17T03:43:57;100056.91;;;21.55;70.40
12536;BME280;6334;48.696;2.114;2023-08-17T03:46:28;100059.17;;;21.34;71.08
12536;BME280;6334;48.696;2.114;2023-08-17T03:48:58;100062.10;;;21.43;70.77
12536;BME280;6334;48.696;2.114;2023-08-17T03:51:29;100062.50;;;21.27;71.58
12536;BME280;6334;48.696;2.114;2023-08-17T03:53:59;100067.14;;;20.98;72.07
12536;BME280;6334;48.696;2.114;2023-08-17T03:56:30;100059.27;;;20.97;72.93
12536;BME280;6334;48.696;2.114;2023-08-17T03:59:00;100055.23;;;21.30;71.38
12536;BME280;6334;48.696;2.114;2023-08-17T04:01:31;100053.10;;;21.08;72.29
12536;BME280;6334;48.696;2.114;2023-08-17T04:04:01;100043.61;;;21.23;71.94
12536;BME280;6334;48.696;2.114;2023-08-17T04:06:32;100044.30;;;21.31;71.78
12536;BME280;6334;48.696;2.114;2023-08-17T04:09:02;100054.93;;;21.39;70.65
12536;BME280;6334;48.696;2.114;2023-08-17T04:11:34;100050.97;;;21.08;71.85
12536;BME280;6334;48.696;2.114;2023-08-17T04:14:06;100044.98;;;21.07;71.96
12536;BME280;6334;48.696;2.114;2023-08-17T04:16:36;100052.66;;;20.94;72.02
12536;BME280;6334;48.696;2.114;2023-08-17T04:19:07;100058.70;;;20.90;73.06
12536;BME280;6334;48.696;2.114;2023-08-17T04:21:37;100056.26;;;20.85;73.25
12536;BME280;6334;48.696;2.114;2023-08-17T04:24:08;100051.40;;;21.14;71.96
12536;BME280;6334;48.696;2.114;2023-08-17T04:26:38;100044.42;;;21.10;71.99
12536;BME280;6334;48.696;2.114;2023-08-17T04:29:09;100052.02;;;21.09;72.54
12536;BME280;6334;48.696;2.114;2023-08-17T04:31:39;100058.88;;;20.90;73.14
12536;BME280;6334;48.696;2.114;2023-08-17T04:34:09;100062.50;;;20.88;72.54
12536;BME280;6334;48.696;2.114;2023-08-17T04:36:40;100067.16;;;20.86;73.66
12536;BME280;6334;48.696;2.114;2023-08-17T04:39:10;100064.45;;;20.53;74.65
12536;BME280;6334;48.696;2.114;2023-08-17T04:41:41;100061.86;;;21.03;72.39
12536;BME280;6334;48.696;2.114;2023-08-17T04:44:11;100059.38;;;21.06;72.68
12536;BME280;6334;48.696;2.114;2023-08-17T04:46:42;100059.22;;;20.94;73.01
12536;BME280;6334;48.696;2.114;2023-08-17T04:49:12;100067.02;;;20.78;73.83
12536;BME280;6334;48.696;2.114;2023-08-17T04:51:43;100068.34;;;20.96;72.98
12536;BME280;6334;48.696;2.114;2023-08-17T04:54:13;100070.93;;;20.98;72.77
12536;BME280;6334;48.696;2.114;2023-08-17T04:56:44;100068.94;;;20.74;73.95
12536;BME280;6334;48.696;2.114;2023-08-17T04:59:14;100066.34;;;20.86;73.56
12536;BME280;6334;48.696;2.114;2023-08-17T05:01:45;100064.19;;;21.04;72.45
12536;BME280;6334;48.696;2.114;2023-08-17T05:04:16;100065.36;;;20.80;73.74
12536;BME280;6334;48.696;2.114;2023-08-17T05:06:46;100062.80;;;20.83;73.46
12536;BME280;6334;48.696;2.114;2023-08-17T05:09:17;100048.96;;;21.04;71.89
12536;BME280;6334;48.696;2.114;2023-08-17T05:11:47;100057.14;;;20.73;72.95
12536;BME280;6334;48.696;2.114;2023-08-17T05:14:18;100061.20;;;20.75;73.25
12536;BME280;6334;48.696;2.114;2023-08-17T05:16:48;100060.56;;;20.90;72.61
12536;BME280;6334;48.696;2.114;2023-08-17T05:19:19;100057.20;;;20.82;72.50
12536;BME280;6334;48.696;2.114;2023-08-17T05:21:49;100055.94;;;20.65;73.51
12536;BME280;6334;48.696;2.114;2023-08-17T05:24:20;100053.77;;;20.48;74.83
12536;BME280;6334;48.696;2.114;2023-08-17T05:26:50;100053.95;;;20.87;72.95
12536;BME280;6334;48.696;2.114;2023-08-17T05:29:21;100057.64;;;20.75;73.84
12536;BME280;6334;48.696;2.114;2023-08-17T05:31:51;100057.97;;;20.88;72.91
12536;BME280;6334;48.696;2.114;2023-08-17T05:34:22;100053.78;;;20.97;72.46
12536;BME280;6334;48.696;2.114;2023-08-17T05:36:52;100045.68;;;21.04;72.41
12536;BME280;6334;48.696;2.114;2023-08-17T05:39:22;100049.66;;;21.11;72.64
12536;BME280;6334;48.696;2.114;2023-08-17T05:41:53;100051.89;;;20.97;73.11
12536;BME280;6334;48.696;2.114;2023-08-17T05:44:23;100046.78;;;20.98;73.31
12536;BME280;6334;48.696;2.114;2023-08-17T05:46:54;100042.74;;;21.18;72.15
12536;BME280;6334;48.696;2.114;2023-08-17T05:49:24;100046.08;;;20.79;74.01
12536;BME280;6334;48.696;2.114;2023-08-17T05:51:55;100038.94;;;21.10;72.74
12536;BME280;6334;48.696;2.114;2023-08-17T05:54:25;100034.13;;;21.06;72.73
12536;BME280;6334;48.696;2.114;2023-08-17T05:56:56;100035.00;;;21.12;72.73
12536;BME280;6334;48.696;2.114;2023-08-17T05:59:26;100034.63;;;21.17;72.53
12536;BME280;6334;48.696;2.114;2023-08-17T06:01:57;100036.09;;;21.01;72.96
12536;BME280;6334;48.696;2.114;2023-08-17T06:04:27;100028.86;;;21.01;72.97
12536;BME280;6334;48.696;2.114;2023-08-17T06:06:57;100035.62;;;20.92;73.50
12536;BME280;6334;48.696;2.114;2023-08-17T06:09:28;100032.44;;;21.06;72.75
12536;BME280;6334;48.696;2.114;2023-08-17T06:11:58;100039.06;;;20.78;74.51
12536;BME280;6334;48.696;2.114;2023-08-17T06:14:29;100032.46;;;21.16;72.69
12536;BME280;6334;48.696;2.114;2023-08-17T06:16:59;100028.91;;;21.16;72.95
12536;BME280;6334;48.696;2.114;2023-08-17T06:19:30;100033.85;;;21.12;72.84
12536;BME280;6334;48.696;2.114;2023-08-17T06:22:00;100037.36;;;20.80;74.53
12536;BME280;6334;48.696;2.114;2023-08-17T06:24:31;100033.27;;;21.17;72.54
12536;BME280;6334;48.696;2.114;2023-08-17T06:27:01;100037.77;;;21.31;72.31
12536;BME280;6334;48.696;2.114;2023-08-17T06:29:32;100040.95;;;21.45;71.56
12536;BME280;6334;48.696;2.114;2023-08-17T06:32:04;100040.27;;;21.34;72.15
12536;BME280;6334;48.696;2.114;2023-08-17T06:34:35;100040.58;;;21.38;72.10
12536;BME280;6334;48.696;2.114;2023-08-17T06:37:05;100038.64;;;21.50;71.85
12536;BME280;6334;48.696;2.114;2023-08-17T06:39:36;100038.77;;;21.51;71.84
12536;BME280;6334;48.696;2.114;2023-08-17T06:42:06;100039.59;;;21.70;71.02
12536;BME280;6334;48.696;2.114;2023-08-17T06:44:37;100041.64;;;21.59;72.00
12536;BME280;6334;48.696;2.114;2023-08-17T06:47:07;100033.48;;;21.59;72.15
12536;BME280;6334;48.696;2.114;2023-08-17T06:49:37;100030.02;;;21.81;71.16
12536;BME280;6334;48.696;2.114;2023-08-17T06:52:08;100028.20;;;21.94;70.35
12536;BME280;6334;48.696;2.114;2023-08-17T06:54:38;100029.36;;;21.90;70.65
12536;BME280;6334;48.696;2.114;2023-08-17T06:57:09;100028.50;;;21.98;70.65
12536;BME280;6334;48.696;2.114;2023-08-17T06:59:39;100031.47;;;21.99;70.40
12536;BME280;6334;48.696;2.114;2023-08-17T07:02:10;100026.48;;;21.90;71.03
12536;BME280;6334;48.696;2.114;2023-08-17T07:04:40;100023.97;;;22.03;70.75
12536;BME280;6334;48.696;2.114;2023-08-17T07:07:11;100019.50;;;22.14;70.61
12536;BME280;6334;48.696;2.114;2023-08-17T07:09:41;100022.70;;;22.19;70.40
12536;BME280;6334;48.696;2.114;2023-08-17T07:12:11;100013.77;;;22.28;70.04
12536;BME280;6334;48.696;2.114;2023-08-17T07:14:42;100023.66;;;22.15;70.64
12536;BME280;6334;48.696;2.114;2023-08-17T07:17:12;100026.93;;;22.43;69.73
12536;BME280;6334;48.696;2.114;2023-08-17T07:19:43;100023.11;;;22.35;69.68
12536;BME280;6334;48.696;2.114;2023-08-17T07:22:14;100022.66;;;22.38;70.65
12536;BME280;6334;48.696;2.114;2023-08-17T07:24:44;100025.16;;;22.59;68.73
12536;BME280;6334;48.696;2.114;2023-08-17T07:27:14;100022.95;;;22.69;68.78
12536;BME280;6334;48.696;2.114;2023-08-17T07:29:45;100018.98;;;22.59;69.54
12536;BME280;6334;48.696;2.114;2023-08-17T07:32:15;100018.40;;;22.71;68.99
12536;BME280;6334;48.696;2.114;2023-08-17T07:34:46;100026.11;;;22.56;69.90
12536;BME280;6334;48.696;2.114;2023-08-17T07:37:16;100028.72;;;22.91;68.39
12536;BME280;6334;48.696;2.114;2023-08-17T07:39:47;100031.05;;;22.67;69.13
12536;BME280;6334;48.696;2.114;2023-08-17T07:42:17;100032.05;;;22.75;68.81
12536;BME280;6334;48.696;2.114;2023-08-17T07:44:48;100031.88;;;23.17;67.17
12536;BME280;6334;48.696;2.114;2023-08-17T07:47:18;100028.23;;;23.09;67.74
12536;BME280;6334;48.696;2.114;2023-08-17T07:49:49;100032.23;;;23.21;67.72
12536;BME280;6334;48.696;2.114;2023-08-17T07:52:19;100034.61;;;23.08;67.95
12536;BME280;6334;48.696;2.114;2023-08-17T07:54:50;100033.84;;;23.58;66.00
12536;BME280;6334;48.696;2.114;2023-08-17T07:57:20;100034.16;;;23.47;66.20
12536;BME280;6334;48.696;2.114;2023-08-17T07:59:50;100031.80;;;23.30;66.26
12536;BME280;6334;48.696;2.114;2023-08-17T08:02:21;100032.70;;;23.61;65.46
12536;BME280;6334;48.696;2.114;2023-08-17T08:04:51;100031.42;;;23.58;65.25
12536;BME280;6334;48.696;2.114;2023-08-17T08:07:22;100040.24;;;23.57;64.04
12536;BME280;6334;48.696;2.114;2023-08-17T08:09:52;100039.59;;;23.56;64.71
12536;BME280;6334;48.696;2.114;2023-08-17T08:12:23;100043.52;;;24.00;64.73
12536;BME280;6334;48.696;2.114;2023-08-17T08:14:53;100031.86;;;23.77;65.01
12536;BME280;6334;48.696;2.114;2023-08-17T08:17:24;100036.02;;;23.98;64.20
12536;BME280;6334;48.696;2.114;2023-08-17T08:19:55;100038.01;;;24.32;63.54
12536;BME280;6334;48.696;2.114;2023-08-17T08:22:25;100034.31;;;24.12;63.87
12536;BME280;6334;48.696;2.114;2023-08-17T08:24:55;100039.32;;;24.01;64.15
12536;BME280;6334;48.696;2.114;2023-08-17T08:27:26;100044.66;;;24.52;63.28
12536;BME280;6334;48.696;2.114;2023-08-17T08:29:56;100049.22;;;24.21;64.24
12536;BME280;6334;48.696;2.114;2023-08-17T08:32:26;100053.59;;;24.38;62.95
12536;BME280;6334;48.696;2.114;2023-08-17T08:34:57;100047.55;;;24.53;61.92
12536;BME280;6334;48.696;2.114;2023-08-17T08:37:27;100043.41;;;24.76;60.42
12536;BME280;6334;48.696;2.114;2023-08-17T08:39:58;100046.16;;;24.76;61.46
12536;BME280;6334;48.696;2.114;2023-08-17T08:42:28;100036.77;;;24.69;60.48
12536;BME280;6334;48.696;2.114;2023-08-17T08:44:59;100041.30;;;24.69;62.53
12536;BME280;6334;48.696;2.114;2023-08-17T08:47:29;100034.92;;;25.09;61.24
12536;BME280;6334;48.696;2.114;2023-08-17T08:50:02;100034.86;;;24.65;61.37
12536;BME280;6334;48.696;2.114;2023-08-17T08:52:45;100035.03;;;25.07;60.30
12536;BME280;6334;48.696;2.114;2023-08-17T08:55:18;100037.39;;;24.52;61.82
12536;BME280;6334;48.696;2.114;2023-08-17T08:57:46;100035.62;;;24.68;61.54
12536;BME280;6334;48.696;2.114;2023-08-17T09:00:17;100037.73;;;24.44;61.56
12536;BME280;6334;48.696;2.114;2023-08-17T09:02:47;100029.69;;;24.68;60.53
12536;BME280;6334;48.696;2.114;2023-08-17T09:05:18;100029.23;;;24.68;60.77
12536;BME280;6334;48.696;2.114;2023-08-17T09:07:49;100032.29;;;25.08;61.09
12536;BME280;6334;48.696;2.114;2023-08-17T09:10:19;100030.73;;;25.35;60.37
12536;BME280;6334;48.696;2.114;2023-08-17T09:12:49;100032.67;;;25.05;60.21
12536;BME280;6334;48.696;2.114;2023-08-17T09:15:20;100031.61;;;24.98;60.37
12536;BME280;6334;48.696;2.114;2023-08-17T09:17:50;100027.51;;;24.91;60.33
12536;BME280;6334;48.696;2.114;2023-08-17T09:20:40;100033.19;;;24.93;59.54
12536;BME280;6334;48.696;2.114;2023-08-17T09:23:15;100016.28;;;25.14;60.56
12536;BME280;6334;48.696;2.114;2023-08-17T09:25:45;100023.05;;;25.07;60.31
12536;BME280;6334;48.696;2.114;2023-08-17T09:28:15;100018.75;;;25.29;58.48
12536;BME280;6334;48.696;2.114;2023-08-17T09:30:52;100024.50;;;25.31;59.61
12536;BME280;6334;48.696;2.114;2023-08-17T09:33:22;100016.89;;;25.23;58.49
12536;BME280;6334;48.696;2.114;2023-08-17T09:35:52;100017.97;;;25.03;58.53
12536;BME280;6334;48.696;2.114;2023-08-17T09:38:22;100015.97;;;25.29;58.03
12536;BME280;6334;48.696;2.114;2023-08-17T09:40:53;100014.14;;;25.26;57.85
12536;BME280;6334;48.696;2.114;2023-08-17T09:43:23;100010.48;;;25.39;56.17
12536;BME280;6334;48.696;2.114;2023-08-17T09:45:56;100012.77;;;25.15;57.30
12536;BME280;6334;48.696;2.114;2023-08-17T09:48:27;100007.61;;;24.86;57.86
12536;BME280;6334;48.696;2.114;2023-08-17T09:50:57;100005.76;;;25.57;56.88
12536;BME280;6334;48.696;2.114;2023-08-17T09:53:28;100002.64;;;25.48;55.28
12536;BME280;6334;48.696;2.114;2023-08-17T09:55:59;100001.55;;;25.54;55.75
12536;BME280;6334;48.696;2.114;2023-08-17T09:58:29;100002.95;;;25.79;56.01
12536;BME280;6334;48.696;2.114;2023-08-17T10:01:01;100004.97;;;25.42;56.24
12536;BME280;6334;48.696;2.114;2023-08-17T10:03:32;99998.92;;;25.76;56.14
12536;BME280;6334;48.696;2.114;2023-08-17T10:06:06;100001.97;;;25.63;54.74
12536;BME280;6334;48.696;2.114;2023-08-17T10:08:39;99993.75;;;25.27;53.89
12536;BME280;6334;48.696;2.114;2023-08-17T10:11:07;99993.16;;;25.81;55.08
12536;BME280;6334;48.696;2.114;2023-08-17T10:14:00;99993.53;;;25.88;53.83
12536;BME280;6334;48.696;2.114;2023-08-17T10:16:26;99987.70;;;25.69;53.88
12536;BME280;6334;48.696;2.114;2023-08-17T10:18:43;99989.69;;;25.72;54.47
12536;BME280;6334;48.696;2.114;2023-08-17T10:21:17;99984.69;;;25.56;52.34
12536;BME280;6334;48.696;2.114;2023-08-17T10:23:45;99979.44;;;25.96;56.14
12536;BME280;6334;48.696;2.114;2023-08-17T10:26:15;99979.23;;;26.03;54.08
12536;BME280;6334;48.696;2.114;2023-08-17T10:28:47;99975.47;;;25.99;54.74
12536;BME280;6334;48.696;2.114;2023-08-17T10:31:17;99978.80;;;25.71;52.65
12536;BME280;6334;48.696;2.114;2023-08-17T10:33:48;99975.07;;;25.68;49.69
12536;BME280;6334;48.696;2.114;2023-08-17T10:36:18;99977.63;;;25.79;50.10
12536;BME280;6334;48.696;2.114;2023-08-17T10:39:17;99974.88;;;26.29;50.77
12536;BME280;6334;48.696;2.114;2023-08-17T10:41:19;99981.16;;;26.02;49.89
12536;BME280;6334;48.696;2.114;2023-08-17T10:43:53;99969.50;;;25.88;49.38
12536;BME280;6334;48.696;2.114;2023-08-17T10:46:36;99971.43;;;26.14;49.16
12536;BME280;6334;48.696;2.114;2023-08-17T10:49:04;99966.31;;;26.47;49.74
12536;BME280;6334;48.696;2.114;2023-08-17T10:51:35;99971.46;;;26.37;50.62
12536;BME280;6334;48.696;2.114;2023-08-17T10:54:04;99967.77;;;26.07;47.44
12536;BME280;6334;48.696;2.114;2023-08-17T10:56:35;99964.80;;;26.27;50.83
12536;BME280;6334;48.696;2.114;2023-08-17T10:59:05;99967.83;;;26.15;51.55
12536;BME280;6334;48.696;2.114;2023-08-17T11:01:36;99962.75;;;26.28;50.79
12536;BME280;6334;48.696;2.114;2023-08-17T11:04:09;99966.81;;;26.35;49.42
12536;BME280;6334;48.696;2.114;2023-08-17T11:06:39;99961.02;;;26.20;50.84
12536;BME280;6334;48.696;2.114;2023-08-17T11:09:10;99956.41;;;26.40;52.42
12536;BME280;6334;48.696;2.114;2023-08-17T11:11:40;99967.81;;;26.28;47.03
12536;BME280;6334;48.696;2.114;2023-08-17T11:14:11;99964.14;;;26.43;46.68
12536;BME280;6334;48.696;2.114;2023-08-17T11:16:41;99964.49;;;26.67;48.17
12536;BME280;6334;48.696;2.114;2023-08-17T11:19:12;99965.34;;;26.68;48.87
12536;BME280;6334;48.696;2.114;2023-08-17T11:21:42;99967.46;;;26.46;48.79
12536;BME280;6334;48.696;2.114;2023-08-17T11:24:13;99964.81;;;26.68;50.88
12536;BME280;6334;48.696;2.114;2023-08-17T11:26:43;99962.61;;;26.51;49.10
12536;BME280;6334;48.696;2.114;2023-08-17T11:29:13;99966.34;;;26.63;48.81
12536;BME280;6334;48.696;2.114;2023-08-17T11:31:44;99959.27;;;26.53;49.74
12536;BME280;6334;48.696;2.114;2023-08-17T11:34:14;99961.25;;;26.56;49.67
12536;BME280;6334;48.696;2.114;2023-08-17T11:36:45;99961.86;;;26.43;48.77
12536;BME280;6334;48.696;2.114;2023-08-17T11:39:15;99964.64;;;26.80;46.55
12536;BME280;6334;48.696;2.114;2023-08-17T11:41:46;99959.03;;;26.51;46.83
12536;BME280;6334;48.696;2.114;2023-08-17T11:44:17;99954.03;;;26.57;45.84
12536;BME280;6334;48.696;2.114;2023-08-17T11:46:49;99953.20;;;26.62;46.44
12536;BME280;6334;48.696;2.114;2023-08-17T11:49:20;99950.42;;;26.94;45.61
12536;BME280;6334;48.696;2.114;2023-08-17T11:51:53;99952.12;;;26.92;45.07
12536;BME280;6334;48.696;2.114;2023-08-17T11:54:23;99945.78;;;26.48;44.53
12536;BME280;6334;48.696;2.114;2023-08-17T11:56:54;99944.28;;;27.14;45.23
12536;BME280;6334;48.696;2.114;2023-08-17T11:59:24;99938.85;;;27.25;46.53
12536;BME280;6334;48.696;2.114;2023-08-17T12:01:55;99939.73;;;27.34;44.75
12536;BME280;6334;48.696;2.114;2023-08-17T12:04:25;99940.08;;;27.10;45.49
12536;BME280;6334;48.696;2.114;2023-08-17T12:06:56;99939.73;;;27.17;45.62
12536;BME280;6334;48.696;2.114;2023-08-17T12:09:26;99936.78;;;27.31;45.23
12536;BME280;6334;48.696;2.114;2023-08-17T12:11:59;99930.29;;;27.17;46.69
12536;BME280;6334;48.696;2.114;2023-08-17T12:14:29;99921.86;;;27.28;45.23
12536;BME280;6334;48.696;2.114;2023-08-17T12:17:00;99914.91;;;27.31;47.37
12536;BME280;6334;48.696;2.114;2023-08-17T12:19:30;99920.11;;;27.07;43.80
12536;BME280;6334;48.696;2.114;2023-08-17T12:22:01;99915.18;;;27.00;44.06
12536;BME280;6334;48.696;2.114;2023-08-17T12:24:31;99912.80;;;27.32;45.87
12536;BME280;6334;48.696;2.114;2023-08-17T12:27:02;99910.30;;;27.47;46.70
12536;BME280;6334;48.696;2.114;2023-08-17T12:29:32;99914.35;;;27.41;47.67
12536;BME280;6334;48.696;2.114;2023-08-17T12:32:03;99913.96;;;27.56;45.71
12536;BME280;6334;48.696;2.114;2023-08-17T12:34:33;99913.50;;;27.46;46.86
12536;BME280;6334;48.696;2.114;2023-08-17T12:37:04;99909.45;;;27.43;47.40
12536;BME280;6334;48.696;2.114;2023-08-17T12:39:34;99912.81;;;27.26;48.88
12536;BME280;6334;48.696;2.114;2023-08-17T12:42:05;99910.81;;;27.43;47.40
12536;BME280;6334;48.696;2.114;2023-08-17T12:44:35;99899.88;;;27.29;46.91
12536;BME280;6334;48.696;2.114;2023-08-17T12:47:05;99898.27;;;27.24;47.62
12536;BME280;6334;48.696;2.114;2023-08-17T12:49:36;99897.50;;;27.39;46.45
12536;BME280;6334;48.696;2.114;2023-08-17T12:52:06;99895.37;;;27.23;46.96
12536;BME280;6334;48.696;2.114;2023-08-17T12:54:37;99891.35;;;27.37;44.31
12536;BME280;6334;48.696;2.114;2023-08-17T12:57:07;99885.72;;;27.50;46.90
12536;BME280;6334;48.696;2.114;2023-08-17T12:59:39;99881.11;;;27.40;46.82
12536;BME280;6334;48.696;2.114;2023-08-17T13:02:10;99880.02;;;27.54;44.68
12536;BME280;6334;48.696;2.114;2023-08-17T13:04:41;99879.73;;;27.37;47.27
12536;BME280;6334;48.696;2.114;2023-08-17T13:07:11;99885.56;;;27.51;46.77
12536;BME280;6334;48.696;2.114;2023-08-17T13:09:42;99883.34;;;27.47;46.98
12536;BME280;6334;48.696;2.114;2023-08-17T13:12:13;99888.92;;;27.51;47.24
12536;BME280;6334;48.696;2.114;2023-08-17T13:14:43;99888.03;;;27.56;47.26
12536;BME280;6334;48.696;2.114;2023-08-17T13:17:14;99891.58;;;27.65;46.34
12536;BME280;6334;48.696;2.114;2023-08-17T13:19:44;99889.13;;;27.44;45.49
12536;BME280;6334;48.696;2.114;2023-08-17T13:22:15;99887.39;;;27.31;44.28
12536;BME280;6334;48.696;2.114;2023-08-17T13:24:45;99888.61;;;27.57;45.32